sensor_id;sensor_type;location;lat;lon;timestamp;pressure;altitude;pressure_sealevel;temperature;humidity
46087;BME280;31824;49.648;8.640;2023-04-07T00:00:51;100358.47;;;6.92;100.00
46087;BME280;31824;49.648;8.640;2023-04-07T00:03:53;100360.13;;;6.83;100.00
46087;BME280;31824;49.648;8.640;2023-04-07T00:06:57;100346.53;;;6.94;100.00
46087;BME280;31824;49.648;8.640;2023-04-07T00:09:58;100347.81;;;6.82;100.00
46087;BME280;31824;49.648;8.640;2023-04-07T00:13:00;100341.16;;;6.92;100.00
46087;BME280;31824;49.648;8.640;2023-04-07T00:16:02;100335.72;;;7.07;100.00
46087;BME280;31824;49.648;8.640;2023-04-07T00:19:04;100334.22;;;6.93;100.00
46087;BME280;31824;49.648;8.640;2023-04-07T00:22:07;100326.81;;;6.89;100.00
46087;BME280;31824;49.648;8.640;2023-04-07T00:25:09;100331.72;;;6.86;100.00
46087;BME280;31824;49.648;8.640;2023-04-07T00:28:11;100328.34;;;6.87;100.00
46087;BME280;31824;49.648;8.640;2023-04-07T00:31:13;100321.50;;;6.96;100.00
46087;BME280;31824;49.648;8.640;2023-04-07T00:34:14;100316.78;;;7.01;100.00
46087;BME280;31824;49.648;8.640;2023-04-07T00:37:18;100307.50;;;7.12;100.00
46087;BME280;31824;49.648;8.640;2023-04-07T00:40:19;100302.63;;;6.99;100.00
46087;BME280;31824;49.648;8.640;2023-04-07T00:43:21;100298.72;;;7.11;100.00
46087;BME280;31824;49.648;8.640;2023-04-07T00:46:23;100295.50;;;7.14;100.00
46087;BME280;31824;49.648;8.640;2023-04-07T00:49:26;100288.22;;;7.02;100.00
46087;BME280;31824;49.648;8.640;2023-04-07T00:52:31;100289.09;;;7.19;100.00
46087;BME280;31824;49.648;8.640;2023-04-07T00:55:33;100290.28;;;7.14;100.00
46087;BME280;31824;49.648;8.640;2023-04-07T00:58:34;100274.63;;;7.14;100.00
46087;BME280;31824;49.648;8.640;2023-04-07T01:01:43;100269.47;;;7.22;100.00
46087;BME280;31824;49.648;8.640;2023-04-07T01:04:50;100271.88;;;6.96;100.00
46087;BME280;31824;49.648;8.640;2023-04-07T01:08:02;100260.97;;;7.16;100.00
46087;BME280;31824;49.648;8.640;2023-04-07T01:11:08;100261.19;;;7.02;100.00
46087;BME280;31824;49.648;8.640;2023-04-07T01:14:14;100247.97;;;7.25;100.00
46087;BME280;31824;49.648;8.640;2023-04-07T01:17:22;100251.44;;;7.17;100.00
46087;BME280;31824;49.648;8.640;2023-04-07T01:20:28;100249.28;;;7.13;100.00
46087;BME280;31824;49.648;8.640;2023-04-07T01:23:55;100249.97;;;7.28;100.00
46087;BME280;31824;49.648;8.640;2023-04-07T01:27:14;100244.25;;;7.23;100.00
46087;BME280;31824;49.648;8.640;2023-04-07T01:30:22;100242.97;;;7.19;100.00
46087;BME280;31824;49.648;8.640;2023-04-07T01:33:26;100243.09;;;7.37;100.00
46087;BME280;31824;49.648;8.640;2023-04-07T01:36:32;100232.31;;;7.34;100.00
46087;BME280;31824;49.648;8.640;2023-04-07T01:39:36;100238.59;;;7.27;100.00
46087;BME280;31824;49.648;8.640;2023-04-07T01:42:39;100223.44;;;7.40;100.00
46087;BME280;31824;49.648;8.640;2023-04-07T01:45:44;100233.91;;;7.40;100.00
46087;BME280;31824;49.648;8.640;2023-04-07T01:48:47;100231.34;;;7.24;100.00
46087;BME280;31824;49.648;8.640;2023-04-07T01:51:50;100236.56;;;7.24;100.00
46087;BME280;31824;49.648;8.640;2023-04-07T01:54:52;100229.13;;;7.45;100.00
46087;BME280;31824;49.648;8.640;2023-04-07T01:57:54;100225.59;;;7.44;100.00
46087;BME280;31824;49.648;8.640;2023-04-07T02:00:58;100223.28;;;7.39;100.00
46087;BME280;31824;49.648;8.640;2023-04-07T02:04:05;100222.25;;;7.46;100.00
46087;BME280;31824;49.648;8.640;2023-04-07T02:07:14;100224.41;;;7.50;100.00
46087;BME280;31824;49.648;8.640;2023-04-07T02:10:24;100216.88;;;7.53;100.00
46087;BME280;31824;49.648;8.640;2023-04-07T02:13:33;100217.31;;;7.49;100.00
46087;BME280;31824;49.648;8.640;2023-04-07T02:16:38;100215.19;;;7.53;100.00
46087;BME280;31824;49.648;8.640;2023-04-07T02:19:43;100210.59;;;7.51;100.00
46087;BME280;31824;49.648;8.640;2023-04-07T02:22:45;100208.44;;;7.55;100.00
46087;BME280;31824;49.648;8.640;2023-04-07T02:25:48;100206.56;;;7.54;100.00
46087;BME280;31824;49.648;8.640;2023-04-07T02:28:50;100206.44;;;7.53;100.00
46087;BME280;31824;49.648;8.640;2023-04-07T02:31:55;100215.19;;;7.53;100.00
46087;BME280;31824;49.648;8.640;2023-04-07T02:34:57;100203.00;;;7.45;100.00
46087;BME280;31824;49.648;8.640;2023-04-07T02:37:59;100204.03;;;7.38;100.00
46087;BME280;31824;49.648;8.640;2023-04-07T02:41:01;100200.00;;;7.58;100.00
46087;BME280;31824;49.648;8.640;2023-04-07T02:44:03;100188.56;;;7.40;100.00
46087;BME280;31824;49.648;8.640;2023-04-07T02:47:06;100187.28;;;7.36;100.00
46087;BME280;31824;49.648;8.640;2023-04-07T02:50:09;100189.47;;;7.49;100.00
46087;BME280;31824;49.648;8.640;2023-04-07T02:53:10;100188.72;;;7.50;100.00
46087;BME280;31824;49.648;8.640;2023-04-07T02:56:12;100192.09;;;7.49;100.00
46087;BME280;31824;49.648;8.640;2023-04-07T02:59:14;100183.94;;;7.37;100.00
46087;BME280;31824;49.648;8.640;2023-04-07T03:02:18;100184.53;;;7.43;100.00
46087;BME280;31824;49.648;8.640;2023-04-07T03:05:21;100187.50;;;7.47;100.00
46087;BME280;31824;49.648;8.640;2023-04-07T03:08:22;100186.63;;;7.64;100.00
46087;BME280;31824;49.648;8.640;2023-04-07T03:11:25;100185.66;;;7.54;100.00
46087;BME280;31824;49.648;8.640;2023-04-07T03:14:28;100177.22;;;7.57;100.00
46087;BME280;31824;49.648;8.640;2023-04-07T03:17:32;100180.66;;;7.73;100.00
46087;BME280;31824;49.648;8.640;2023-04-07T03:20:34;100182.66;;;7.67;100.00
46087;BME280;31824;49.648;8.640;2023-04-07T03:23:42;100188.34;;;7.63;100.00
46087;BME280;31824;49.648;8.640;2023-04-07T03:26:43;100182.50;;;7.66;100.00
46087;BME280;31824;49.648;8.640;2023-04-07T03:29:53;100182.94;;;7.62;100.00
46087;BME280;31824;49.648;8.640;2023-04-07T03:32:56;100177.88;;;7.63;100.00
46087;BME280;31824;49.648;8.640;2023-04-07T03:35:58;100182.31;;;7.64;100.00
46087;BME280;31824;49.648;8.640;2023-04-07T03:39:02;100183.81;;;7.53;100.00
46087;BME280;31824;49.648;8.640;2023-04-07T03:42:04;100172.44;;;7.53;100.00
46087;BME280;31824;49.648;8.640;2023-04-07T03:45:08;100175.09;;;7.62;100.00
46087;BME280;31824;49.648;8.640;2023-04-07T03:48:16;100174.25;;;7.45;100.00
46087;BME280;31824;49.648;8.640;2023-04-07T03:51:30;100168.75;;;7.51;100.00
46087;BME280;31824;49.648;8.640;2023-04-07T03:54:32;100166.63;;;7.64;100.00
46087;BME280;31824;49.648;8.640;2023-04-07T03:57:36;100163.25;;;7.56;100.00
46087;BME280;31824;49.648;8.640;2023-04-07T04:00:38;100160.72;;;7.49;100.00
46087;BME280;31824;49.648;8.640;2023-04-07T04:03:45;100156.91;;;7.46;100.00
46087;BME280;31824;49.648;8.640;2023-04-07T04:07:16;100168.41;;;7.48;100.00
46087;BME280;31824;49.648;8.640;2023-04-07T04:10:22;100165.81;;;7.48;100.00
46087;BME280;31824;49.648;8.640;2023-04-07T04:13:26;100167.22;;;7.53;100.00
46087;BME280;31824;49.648;8.640;2023-04-07T04:16:31;100171.91;;;7.39;100.00
46087;BME280;31824;49.648;8.640;2023-04-07T04:19:39;100172.28;;;7.51;100.00
46087;BME280;31824;49.648;8.640;2023-04-07T04:22:49;100177.34;;;7.50;100.00
46087;BME280;31824;49.648;8.640;2023-04-07T04:25:51;100175.22;;;7.54;100.00
46087;BME280;31824;49.648;8.640;2023-04-07T04:28:53;100179.53;;;7.54;100.00
46087;BME280;31824;49.648;8.640;2023-04-07T04:31:56;100179.16;;;7.42;100.00
46087;BME280;31824;49.648;8.640;2023-04-07T04:35:00;100171.38;;;7.51;100.00
46087;BME280;31824;49.648;8.640;2023-04-07T04:38:04;100172.88;;;7.40;100.00
46087;BME280;31824;49.648;8.640;2023-04-07T04:41:07;100168.34;;;7.30;100.00
46087;BME280;31824;49.648;8.640;2023-04-07T04:44:09;100174.06;;;7.35;100.00
46087;BME280;31824;49.648;8.640;2023-04-07T04:47:16;100169.72;;;7.26;100.00
46087;BME280;31824;49.648;8.640;2023-04-07T04:50:20;100176.44;;;7.16;100.00
46087;BME280;31824;49.648;8.640;2023-04-07T04:53:24;100177.91;;;7.05;100.00
46087;BME280;31824;49.648;8.640;2023-04-07T04:56:30;100187.97;;;6.93;100.00
46087;BME280;31824;49.648;8.640;2023-04-07T04:59:32;100179.59;;;7.04;100.00
46087;BME280;31824;49.648;8.640;2023-04-07T05:02:37;100183.34;;;7.15;100.00
46087;BME280;31824;49.648;8.640;2023-04-07T05:05:46;100180.72;;;7.15;100.00
46087;BME280;31824;49.648;8.640;2023-04-07T05:08:49;100175.41;;;7.22;100.00
46087;BME280;31824;49.648;8.640;2023-04-07T05:11:54;100179.91;;;7.32;100.00
46087;BME280;31824;49.648;8.640;2023-04-07T05:14:57;100179.97;;;7.16;100.00
46087;BME280;31824;49.648;8.640;2023-04-07T05:17:59;100187.38;;;7.20;100.00
46087;BME280;31824;49.648;8.640;2023-04-07T05:21:04;100174.50;;;7.31;100.00
46087;BME280;31824;49.648;8.640;2023-04-07T05:24:08;100175.50;;;7.49;100.00
46087;BME280;31824;49.648;8.640;2023-04-07T05:27:11;100174.06;;;7.35;100.00
46087;BME280;31824;49.648;8.640;2023-04-07T05:30:14;100183.03;;;7.46;100.00
46087;BME280;31824;49.648;8.640;2023-04-07T05:33:16;100189.03;;;7.53;100.00
46087;BME280;31824;49.648;8.640;2023-04-07T05:36:24;100185.66;;;7.54;100.00
46087;BME280;31824;49.648;8.640;2023-04-07T05:39:29;100196.63;;;7.68;100.00
46087;BME280;31824;49.648;8.640;2023-04-07T05:42:32;100187.09;;;7.68;100.00
46087;BME280;31824;49.648;8.640;2023-04-07T05:45:34;100190.00;;;7.63;100.00
46087;BME280;31824;49.648;8.640;2023-04-07T05:48:36;100186.63;;;7.55;100.00
46087;BME280;31824;49.648;8.640;2023-04-07T05:51:39;100189.38;;;7.56;100.00
46087;BME280;31824;49.648;8.640;2023-04-07T05:54:45;100187.53;;;7.64;100.00
46087;BME280;31824;49.648;8.640;2023-04-07T05:57:48;100186.22;;;7.76;100.00
46087;BME280;31824;49.648;8.640;2023-04-07T06:00:53;100185.13;;;7.74;100.00
46087;BME280;31824;49.648;8.640;2023-04-07T06:03:55;100179.59;;;7.71;100.00
46087;BME280;31824;49.648;8.640;2023-04-07T06:07:02;100184.94;;;7.64;100.00
46087;BME280;31824;49.648;8.640;2023-04-07T06:10:05;100176.69;;;7.86;100.00
46087;BME280;31824;49.648;8.640;2023-04-07T06:13:07;100184.06;;;7.90;100.00
46087;BME280;31824;49.648;8.640;2023-04-07T06:16:09;100179.03;;;8.00;100.00
46087;BME280;31824;49.648;8.640;2023-04-07T06:19:11;100179.50;;;8.14;100.00
46087;BME280;31824;49.648;8.640;2023-04-07T06:22:14;100184.13;;;8.16;100.00
46087;BME280;31824;49.648;8.640;2023-04-07T06:25:16;100182.72;;;8.20;100.00
46087;BME280;31824;49.648;8.640;2023-04-07T06:28:18;100181.22;;;8.39;100.00
46087;BME280;31824;49.648;8.640;2023-04-07T06:31:20;100174.44;;;8.41;100.00
46087;BME280;31824;49.648;8.640;2023-04-07T06:34:22;100176.00;;;8.48;100.00
46087;BME280;31824;49.648;8.640;2023-04-07T06:37:25;100181.06;;;8.55;100.00
46087;BME280;31824;49.648;8.640;2023-04-07T06:40:28;100178.47;;;8.64;100.00
46087;BME280;31824;49.648;8.640;2023-04-07T06:43:29;100182.47;;;8.69;100.00
46087;BME280;31824;49.648;8.640;2023-04-07T06:46:36;100195.69;;;8.79;100.00
46087;BME280;31824;49.648;8.640;2023-04-07T06:49:38;100189.69;;;8.81;100.00
46087;BME280;31824;49.648;8.640;2023-04-07T06:52:41;100194.31;;;8.83;100.00
46087;BME280;31824;49.648;8.640;2023-04-07T06:55:43;100189.41;;;8.77;100.00
46087;BME280;31824;49.648;8.640;2023-04-07T06:58:45;100195.84;;;8.90;100.00
46087;BME280;31824;49.648;8.640;2023-04-07T07:01:47;100192.63;;;8.92;100.00
46087;BME280;31824;49.648;8.640;2023-04-07T07:04:49;100188.72;;;9.06;100.00
46087;BME280;31824;49.648;8.640;2023-04-07T07:07:53;100185.00;;;9.13;100.00
46087;BME280;31824;49.648;8.640;2023-04-07T07:10:55;100204.88;;;9.20;100.00
46087;BME280;31824;49.648;8.640;2023-04-07T07:13:57;100190.53;;;9.25;100.00
46087;BME280;31824;49.648;8.640;2023-04-07T07:16:59;100194.34;;;9.28;100.00
46087;BME280;31824;49.648;8.640;2023-04-07T07:20:02;100197.84;;;9.46;100.00
46087;BME280;31824;49.648;8.640;2023-04-07T07:23:05;100205.63;;;9.64;100.00
46087;BME280;31824;49.648;8.640;2023-04-07T07:26:07;100197.38;;;9.51;100.00
46087;BME280;31824;49.648;8.640;2023-04-07T07:29:08;100202.16;;;9.83;100.00
46087;BME280;31824;49.648;8.640;2023-04-07T07:32:10;100203.94;;;9.65;100.00
46087;BME280;31824;49.648;8.640;2023-04-07T07:35:12;100197.19;;;9.49;100.00
46087;BME280;31824;49.648;8.640;2023-04-07T07:38:15;100198.56;;;9.63;100.00
46087;BME280;31824;49.648;8.640;2023-04-07T07:41:17;100202.84;;;9.62;100.00
46087;BME280;31824;49.648;8.640;2023-04-07T07:44:19;100197.19;;;9.58;100.00
46087;BME280;31824;49.648;8.640;2023-04-07T07:47:21;100203.53;;;9.51;100.00
46087;BME280;31824;49.648;8.640;2023-04-07T07:50:23;100211.84;;;9.56;100.00
46087;BME280;31824;49.648;8.640;2023-04-07T07:53:27;100208.50;;;9.76;100.00
46087;BME280;31824;49.648;8.640;2023-04-07T07:56:29;100208.16;;;9.82;100.00
46087;BME280;31824;49.648;8.640;2023-04-07T07:59:30;100209.13;;;10.29;100.00
46087;BME280;31824;49.648;8.640;2023-04-07T08:02:32;100215.84;;;10.17;100.00
46087;BME280;31824;49.648;8.640;2023-04-07T08:05:34;100211.25;;;10.61;100.00
46087;BME280;31824;49.648;8.640;2023-04-07T08:08:37;100213.59;;;10.30;100.00
46087;BME280;31824;49.648;8.640;2023-04-07T08:11:39;100213.72;;;10.31;100.00
46087;BME280;31824;49.648;8.640;2023-04-07T08:14:41;100224.63;;;10.17;100.00
46087;BME280;31824;49.648;8.640;2023-04-07T08:17:42;100215.50;;;10.22;100.00
46087;BME280;31824;49.648;8.640;2023-04-07T08:20:45;100218.97;;;10.12;100.00
46087;BME280;31824;49.648;8.640;2023-04-07T08:23:48;100225.78;;;10.10;100.00
46087;BME280;31824;49.648;8.640;2023-04-07T08:26:50;100233.00;;;9.85;100.00
46087;BME280;31824;49.648;8.640;2023-04-07T08:29:58;100235.22;;;9.72;100.00
46087;BME280;31824;49.648;8.640;2023-04-07T08:32:59;100237.28;;;9.93;100.00
46087;BME280;31824;49.648;8.640;2023-04-07T08:36:02;100237.94;;;10.19;100.00
46087;BME280;31824;49.648;8.640;2023-04-07T08:39:05;100240.88;;;10.13;100.00
46087;BME280;31824;49.648;8.640;2023-04-07T08:42:08;100243.84;;;10.07;100.00
46087;BME280;31824;49.648;8.640;2023-04-07T08:45:12;100230.00;;;10.00;100.00
46087;BME280;31824;49.648;8.640;2023-04-07T08:48:16;100242.88;;;10.16;100.00
46087;BME280;31824;49.648;8.640;2023-04-07T08:51:23;100246.28;;;9.87;100.00
46087;BME280;31824;49.648;8.640;2023-04-07T08:54:29;100250.59;;;9.86;100.00
46087;BME280;31824;49.648;8.640;2023-04-07T08:57:31;100245.09;;;9.74;100.00
46087;BME280;31824;49.648;8.640;2023-04-07T09:00:33;100243.25;;;9.73;100.00
46087;BME280;31824;49.648;8.640;2023-04-07T09:03:36;100253.56;;;10.08;100.00
46087;BME280;31824;49.648;8.640;2023-04-07T09:06:38;100258.19;;;10.11;100.00
46087;BME280;31824;49.648;8.640;2023-04-07T09:09:41;100258.50;;;10.33;100.00
46087;BME280;31824;49.648;8.640;2023-04-07T09:12:43;100261.06;;;10.51;100.00
46087;BME280;31824;49.648;8.640;2023-04-07T09:15:45;100256.72;;;11.08;100.00
46087;BME280;31824;49.648;8.640;2023-04-07T09:18:47;100264.38;;;11.45;100.00
46087;BME280;31824;49.648;8.640;2023-04-07T09:21:49;100256.41;;;11.05;100.00
46087;BME280;31824;49.648;8.640;2023-04-07T09:24:53;100266.53;;;10.62;100.00
46087;BME280;31824;49.648;8.640;2023-04-07T09:27:56;100260.50;;;11.02;100.00
46087;BME280;31824;49.648;8.640;2023-04-07T09:30:58;100258.50;;;10.99;100.00
46087;BME280;31824;49.648;8.640;2023-04-07T09:34:00;100263.91;;;10.81;100.00
46087;BME280;31824;49.648;8.640;2023-04-07T09:37:06;100268.31;;;10.72;100.00
46087;BME280;31824;49.648;8.640;2023-04-07T09:40:24;100271.41;;;10.49;100.00
46087;BME280;31824;49.648;8.640;2023-04-07T09:43:27;100269.16;;;10.62;100.00
46087;BME280;31824;49.648;8.640;2023-04-07T09:46:29;100278.19;;;10.75;100.00
46087;BME280;31824;49.648;8.640;2023-04-07T09:49:32;100261.41;;;11.02;100.00
46087;BME280;31824;49.648;8.640;2023-04-07T09:52:49;100264.78;;;10.91;100.00
46087;BME280;31824;49.648;8.640;2023-04-07T09:55:54;100267.56;;;11.03;100.00
46087;BME280;31824;49.648;8.640;2023-04-07T09:58:56;100270.66;;;10.50;100.00
46087;BME280;31824;49.648;8.640;2023-04-07T10:01:59;100258.78;;;11.02;100.00
46087;BME280;31824;49.648;8.640;2023-04-07T10:05:02;100274.44;;;10.81;100.00
46087;BME280;31824;49.648;8.640;2023-04-07T10:08:05;100264.94;;;11.03;100.00
46087;BME280;31824;49.648;8.640;2023-04-07T10:11:09;100271.78;;;11.30;100.00
46087;BME280;31824;49.648;8.640;2023-04-07T10:14:11;100271.31;;;11.15;100.00
46087;BME280;31824;49.648;8.640;2023-04-07T10:17:15;100264.28;;;11.54;100.00
46087;BME280;31824;49.648;8.640;2023-04-07T10:20:20;100265.50;;;11.28;100.00
46087;BME280;31824;49.648;8.640;2023-04-07T10:23:26;100261.66;;;11.54;100.00
46087;BME280;31824;49.648;8.640;2023-04-07T10:26:33;100260.41;;;11.10;100.00
46087;BME280;31824;49.648;8.640;2023-04-07T10:29:39;100265.94;;;11.43;100.00
46087;BME280;31824;49.648;8.640;2023-04-07T10:32:45;100277.47;;;10.67;100.00
46087;BME280;31824;49.648;8.640;2023-04-07T10:36:04;100280.38;;;10.70;100.00
46087;BME280;31824;49.648;8.640;2023-04-07T10:39:20;100288.34;;;10.80;100.00
46087;BME280;31824;49.648;8.640;2023-04-07T10:42:44;100278.69;;;10.71;100.00
46087;BME280;31824;49.648;8.640;2023-04-07T10:45:52;100276.94;;;11.09;100.00
46087;BME280;31824;49.648;8.640;2023-04-07T10:49:07;100276.34;;;11.41;100.00
46087;BME280;31824;49.648;8.640;2023-04-07T10:52:21;100279.22;;;10.96;100.00
46087;BME280;31824;49.648;8.640;2023-04-07T10:55:34;100286.09;;;11.53;100.00
46087;BME280;31824;49.648;8.640;2023-04-07T10:58:38;100282.13;;;11.77;100.00
46087;BME280;31824;49.648;8.640;2023-04-07T11:01:40;100281.19;;;12.47;100.00
46087;BME280;31824;49.648;8.640;2023-04-07T11:04:45;100284.31;;;12.02;100.00
46087;BME280;31824;49.648;8.640;2023-04-07T11:07:50;100283.44;;;12.32;100.00
46087;BME280;31824;49.648;8.640;2023-04-07T11:10:52;100289.31;;;11.69;100.00
46087;BME280;31824;49.648;8.640;2023-04-07T11:13:55;100274.25;;;11.47;100.00
46087;BME280;31824;49.648;8.640;2023-04-07T11:16:58;100284.56;;;11.55;100.00
46087;BME280;31824;49.648;8.640;2023-04-07T11:20:02;100286.06;;;11.72;100.00
46087;BME280;31824;49.648;8.640;2023-04-07T11:23:04;100291.63;;;11.85;100.00
46087;BME280;31824;49.648;8.640;2023-04-07T11:26:07;100284.13;;;11.90;100.00
46087;BME280;31824;49.648;8.640;2023-04-07T11:29:11;100284.34;;;12.22;100.00
46087;BME280;31824;49.648;8.640;2023-04-07T11:32:13;100282.56;;;11.92;100.00
46087;BME280;31824;49.648;8.640;2023-04-07T11:35:15;100294.59;;;12.09;100.00
46087;BME280;31824;49.648;8.640;2023-04-07T11:38:18;100293.03;;;11.81;100.00
46087;BME280;31824;49.648;8.640;2023-04-07T11:41:20;100305.88;;;11.09;100.00
46087;BME280;31824;49.648;8.640;2023-04-07T11:44:23;100302.13;;;10.97;100.00
46087;BME280;31824;49.648;8.640;2023-04-07T11:47:33;100305.47;;;11.05;100.00
46087;BME280;31824;49.648;8.640;2023-04-07T11:50:39;100316.31;;;10.61;100.00
46087;BME280;31824;49.648;8.640;2023-04-07T11:53:41;100314.53;;;11.27;100.00
46087;BME280;31824;49.648;8.640;2023-04-07T11:56:45;100318.88;;;11.27;100.00
46087;BME280;31824;49.648;8.640;2023-04-07T11:59:49;100319.75;;;10.98;100.00
46087;BME280;31824;49.648;8.640;2023-04-07T12:02:51;100331.50;;;10.74;100.00
46087;BME280;31824;49.648;8.640;2023-04-07T12:05:54;100334.25;;;10.56;100.00
46087;BME280;31824;49.648;8.640;2023-04-07T12:08:56;100330.97;;;10.68;100.00
46087;BME280;31824;49.648;8.640;2023-04-07T12:11:58;100325.25;;;10.63;100.00
46087;BME280;31824;49.648;8.640;2023-04-07T12:15:01;100331.16;;;11.18;100.00
46087;BME280;31824;49.648;8.640;2023-04-07T12:18:03;100319.22;;;11.21;100.00
46087;BME280;31824;49.648;8.640;2023-04-07T12:21:24;100331.97;;;11.17;100.00
46087;BME280;31824;49.648;8.640;2023-04-07T12:24:27;100325.34;;;11.11;100.00
46087;BME280;31824;49.648;8.640;2023-04-07T12:27:29;100330.88;;;10.95;100.00
46087;BME280;31824;49.648;8.640;2023-04-07T12:30:45;100325.97;;;10.71;100.00
46087;BME280;31824;49.648;8.640;2023-04-07T12:33:47;100333.16;;;9.90;100.00
46087;BME280;31824;49.648;8.640;2023-04-07T12:36:50;100344.72;;;9.46;100.00
46087;BME280;31824;49.648;8.640;2023-04-07T12:39:52;100344.41;;;9.35;100.00
46087;BME280;31824;49.648;8.640;2023-04-07T12:42:53;100349.88;;;9.73;100.00
46087;BME280;31824;49.648;8.640;2023-04-07T12:45:59;100352.69;;;9.66;100.00
46087;BME280;31824;49.648;8.640;2023-04-07T12:49:01;100361.06;;;9.44;100.00
46087;BME280;31824;49.648;8.640;2023-04-07T12:52:03;100358.09;;;9.58;100.00
46087;BME280;31824;49.648;8.640;2023-04-07T12:55:27;100363.66;;;9.35;100.00
46087;BME280;31824;49.648;8.640;2023-04-07T12:58:30;100360.88;;;9.51;100.00
46087;BME280;31824;49.648;8.640;2023-04-07T13:01:33;100366.75;;;9.49;100.00
46087;BME280;31824;49.648;8.640;2023-04-07T13:04:36;100364.69;;;9.81;100.00
46087;BME280;31824;49.648;8.640;2023-04-07T13:07:41;100361.34;;;9.38;100.00
46087;BME280;31824;49.648;8.640;2023-04-07T13:10:43;100360.22;;;9.71;100.00
46087;BME280;31824;49.648;8.640;2023-04-07T13:13:44;100366.56;;;9.65;100.00
46087;BME280;31824;49.648;8.640;2023-04-07T13:16:49;100350.66;;;9.72;100.00
46087;BME280;31824;49.648;8.640;2023-04-07T13:19:50;100353.72;;;9.85;100.00
46087;BME280;31824;49.648;8.640;2023-04-07T13:22:53;100356.16;;;10.29;100.00
46087;BME280;31824;49.648;8.640;2023-04-07T13:26:01;100361.47;;;10.11;100.00
46087;BME280;31824;49.648;8.640;2023-04-07T13:29:03;100354.06;;;10.53;100.00
46087;BME280;31824;49.648;8.640;2023-04-07T13:32:07;100352.00;;;10.87;100.00
46087;BME280;31824;49.648;8.640;2023-04-07T13:35:09;100343.03;;;11.23;100.00
46087;BME280;31824;49.648;8.640;2023-04-07T13:38:14;100339.66;;;11.34;100.00
46087;BME280;31824;49.648;8.640;2023-04-07T13:41:16;100333.00;;;11.19;100.00
46087;BME280;31824;49.648;8.640;2023-04-07T13:44:18;100336.91;;;11.13;100.00
46087;BME280;31824;49.648;8.640;2023-04-07T13:47:21;100331.16;;;11.18;100.00
46087;BME280;31824;49.648;8.640;2023-04-07T13:50:23;100332.72;;;11.93;100.00
46087;BME280;31824;49.648;8.640;2023-04-07T13:53:25;100330.00;;;12.02;100.00
46087;BME280;31824;49.648;8.640;2023-04-07T13:56:27;100329.44;;;12.97;100.00
46087;BME280;31824;49.648;8.640;2023-04-07T13:59:28;100327.53;;;12.04;100.00
46087;BME280;31824;49.648;8.640;2023-04-07T14:02:32;100330.25;;;11.95;100.00
46087;BME280;31824;49.648;8.640;2023-04-07T14:05:34;100333.41;;;12.61;100.00
46087;BME280;31824;49.648;8.640;2023-04-07T14:08:36;100333.53;;;12.63;100.00
46087;BME280;31824;49.648;8.640;2023-04-07T14:11:38;100328.78;;;12.79;100.00
46087;BME280;31824;49.648;8.640;2023-04-07T14:14:40;100331.66;;;13.03;100.00
46087;BME280;31824;49.648;8.640;2023-04-07T14:17:43;100329.72;;;12.80;100.00
46087;BME280;31824;49.648;8.640;2023-04-07T14:20:45;100321.00;;;12.50;100.00
46087;BME280;31824;49.648;8.640;2023-04-07T14:23:47;100331.09;;;13.17;100.00
46087;BME280;31824;49.648;8.640;2023-04-07T14:26:49;100337.47;;;12.47;100.00
46087;BME280;31824;49.648;8.640;2023-04-07T14:29:51;100327.59;;;12.45;100.00
46087;BME280;31824;49.648;8.640;2023-04-07T14:32:55;100325.63;;;12.53;100.00
46087;BME280;31824;49.648;8.640;2023-04-07T14:35:57;100328.47;;;12.25;100.00
46087;BME280;31824;49.648;8.640;2023-04-07T14:38:59;100329.41;;;12.36;100.00
46087;BME280;31824;49.648;8.640;2023-04-07T14:42:01;100331.13;;;12.35;100.00
46087;BME280;31824;49.648;8.640;2023-04-07T14:45:04;100332.25;;;11.78;100.00
46087;BME280;31824;49.648;8.640;2023-04-07T14:48:07;100333.22;;;11.60;100.00
46087;BME280;31824;49.648;8.640;2023-04-07T14:51:09;100327.69;;;11.57;100.00
46087;BME280;31824;49.648;8.640;2023-04-07T14:54:12;100327.28;;;11.52;100.00
46087;BME280;31824;49.648;8.640;2023-04-07T14:57:14;100328.25;;;11.63;100.00
46087;BME280;31824;49.648;8.640;2023-04-07T15:00:17;100333.88;;;11.28;100.00
46087;BME280;31824;49.648;8.640;2023-04-07T15:03:20;100330.44;;;11.48;100.00
46087;BME280;31824;49.648;8.640;2023-04-07T15:06:22;100336.44;;;11.66;100.00
46087;BME280;31824;49.648;8.640;2023-04-07T15:09:24;100344.66;;;11.12;100.00
46087;BME280;31824;49.648;8.640;2023-04-07T15:12:26;100352.63;;;11.22;100.00
46087;BME280;31824;49.648;8.640;2023-04-07T15:15:30;100349.44;;;10.97;100.00
46087;BME280;31824;49.648;8.640;2023-04-07T15:18:33;100350.22;;;11.15;100.00
46087;BME280;31824;49.648;8.640;2023-04-07T15:21:35;100351.28;;;10.98;100.00
46087;BME280;31824;49.648;8.640;2023-04-07T15:24:37;100365.06;;;10.95;100.00
46087;BME280;31824;49.648;8.640;2023-04-07T15:27:39;100352.28;;;10.90;100.00
46087;BME280;31824;49.648;8.640;2023-04-07T15:30:40;100360.28;;;10.72;100.00
46087;BME280;31824;49.648;8.640;2023-04-07T15:33:44;100354.38;;;10.75;100.00
46087;BME280;31824;49.648;8.640;2023-04-07T15:36:46;100348.00;;;10.81;100.00
46087;BME280;31824;49.648;8.640;2023-04-07T15:39:49;100359.91;;;10.59;100.00
46087;BME280;31824;49.648;8.640;2023-04-07T15:42:51;100361.50;;;10.76;100.00
46087;BME280;31824;49.648;8.640;2023-04-07T15:45:54;100366.16;;;10.97;100.00
46087;BME280;31824;49.648;8.640;2023-04-07T15:48:57;100361.72;;;10.88;100.00
46087;BME280;31824;49.648;8.640;2023-04-07T15:51:59;100361.91;;;10.80;100.00
46087;BME280;31824;49.648;8.640;2023-04-07T15:55:04;100371.22;;;10.77;100.00